Nearby METAR Reports

 

LEXJ - Santander/Paraya, Spain
Distancia a la estación: ESE 6km
Actualizado: 19/10/2018 08:30
Muy nuboso
Muy nuboso
 Viento del OSO
Viento: OSO 11 km/h
Temperatura: 17°C
Rocío: 17°C
Humedad: 100%
Barómetro: 1018 hPa
Nubes: Muy nuboso
Visibilidad: 8 km
Detalle Nubes: Parcialmente nuboso 274 m
Muy nuboso 427 m
Muy nuboso 792 m
2018/10/19 06:30 LEXJ 190630Z 25006KT 8000 SCT009 BKN014 BKN026 17/17 Q1018
LEBB - Bilbao/Sondica, Spain
Distancia a la estación: ESE 80km
Actualizado: 19/10/2018 08:30
Muy nuboso
Muy nuboso
 Viento del N
Viento: N 6 km/h
Temperatura: 17°C
Rocío: 16°C
Humedad: 94%
Barómetro: 1017 hPa
Nubes: Muy nuboso
Visibilidad: 7 km
Detalle Nubes: Parcialmente nuboso 427 m
Muy nuboso 610 m
2018/10/19 06:30 LEBB 190630Z 35003KT 300V030 7000 SCT014 BKN020 17/16 Q1017 TEMPO 3000 BR
 
LEZG - Zaragoza (mil/Ci, Spain
Distancia a la estación: NNE 176km
Actualizado: 19/10/2018 08:37
Lluvia, Muy nuboso
Lluvia, Muy nuboso
 Viento del O
Viento: O 9 km/h
Temperatura: 16°C
Rocío: 14°C
Humedad: 88%
Barómetro: 1014 hPa
Resumen: Lluvia
Nubes: Muy nuboso
Visibilidad: 3 km
Detalle Nubes: Nubes dispersas 1219 m
Muy nuboso 1524 m
2018/10/19 06:37 LEZG 190637Z 26005KT 240V300 3200 RA FEW040 BKN050 16/14 Q1014
LEVT - Vitoria, Spain
Distancia a la estación: ESE 114km
Actualizado: 19/10/2018 08:30
Muy nuboso
Muy nuboso
 Viento del N
Viento: N 17 km/h
Temperatura: 14°C
Rocío: 13°C
Humedad: 94%
Barómetro: 1017 hPa
Nubes: Muy nuboso
Visibilidad: 8 km
Detalle Nubes: Nubes dispersas 366 m
Muy nuboso 610 m
Muy nuboso 823 m
2018/10/19 06:30 LEVT 190630Z 01009KT 340V040 8000 FEW012 BKN020 BKN027 14/13 Q1017
 
LEBG - Burgos/Villafria, Spain
Distancia a la estación: S 122km
Actualizado: 19/10/2018 08:30
Muy nuboso
Muy nuboso
 Viento del NNE
Viento: NNE 20 km/h
Temperatura: 12°C
Rocío: 12°C
Humedad: 100%
Barómetro: 1017 hPa
Nubes: Muy nuboso
Visibilidad: 10 km
Detalle Nubes: Muy nuboso 213 m
Muy nuboso 518 m
2018/10/19 06:30 LEBG 190630Z 03011KT 9999 BKN007 BKN017 12/12 Q1017
LELO - Logrono/Agoncill, Spain
Distancia a la estación: SE 169km
Actualizado: 19/10/2018 08:30
Nubes dispersas
Nubes dispersas
 Viento del varies
Viento: varies 2 km/h
Temperatura: 14°C
Rocío: 13°C
Humedad: 94%
Barómetro: 1016 hPa
Nubes: Nubes dispersas
Visibilidad: 10 km
Detalle Nubes: Nubes dispersas 975 m
2018/10/19 06:30 LELO 190630Z VRB01KT 9999 FEW032 14/13 Q1016
 
LESO - San Sebastian/Fu, Spain
Distancia a la estación: E 169km
Actualizado: 19/10/2018 08:30
Muy nuboso
Muy nuboso
 Viento del varies
Viento: varies 2 km/h
Temperatura: 17°C
Rocío: 16°C
Humedad: 94%
Barómetro: 1017 hPa
Nubes: Muy nuboso
Visibilidad: 8 km
Detalle Nubes: Parcialmente nuboso 274 m
Muy nuboso 457 m
Muy nuboso 914 m
2018/10/19 06:30 LESO 190630Z VRB01KT 8000 SCT009 BKN015 BKN030 17/16 Q1017
LEAS - Asturias/Aviles, Spain
Distancia a la estación: O 172km
Actualizado: 19/10/2018 08:30
Mist, Few clouds
Mist, Few clouds
 Viento del OSO
Viento: OSO 7 km/h
Temperatura: 13°C
Rocío: 12°C
Humedad: 94%
Barómetro: 1018 hPa
Resumen: Mist
Nubes: Nubes dispersas
Visibilidad: 4 km
Detalle Nubes: Nubes dispersas 305 m
2018/10/19 06:30 LEAS 190630Z 24004KT 4000 BR FEW010 13/12 Q1018 NOSIG
 
LELN - Leon/Virgen Cami, Spain
Distancia a la estación: SO 174km
Actualizado: 19/10/2018 08:30
Despejado
Despejado
 Viento del N
Viento: N 11 km/h
Temperatura: 12°C
Rocío: 5°C
Humedad: 63%
Barómetro: 1017 hPa
Resumen: Despejado
Visibilidad: greater than 10 km
2018/10/19 06:30 LELN 190630Z 36006KT 330V030 CAVOK 12/05 Q1017
LFBZ - Biarritz/Anglet, France
Distancia a la estación: E 191km
Actualizado: 19/10/2018 08:30
Mist, Cubierto
Mist, Cubierto
 Viento del varies
Viento: varies 4 km/h
Temperatura: 16°C
Rocío: 16°C
Humedad: 100%
Barómetro: 1017 hPa
Resumen: Mist
Nubes: Cubierto
Visibilidad: 3 km
Detalle Nubes: Cubierto 91 m
2018/10/19 06:30 LFBZ 190630Z AUTO VRB02KT 3400 BR OVC003 16/16 Q1017 BECMG 9999 NSW BKN007
 
LEPP - Pamplona/Noain, Spain
Distancia a la estación: ESE 199km
Actualizado: 19/10/2018 08:30
Muy nuboso
Muy nuboso
 Viento del NO
Viento: NO 9 km/h
Temperatura: 16°C
Rocío: 13°C
Humedad: 83%
Barómetro: 1016 hPa
Nubes: Muy nuboso
Visibilidad: 10 km
Detalle Nubes: Nubes dispersas 549 m
Muy nuboso 792 m
2018/10/19 06:30 LEPP 190630Z 31005KT 9999 FEW018 BKN026 16/13 Q1016
LEBL - Barcelona Airpor, Spain
Distancia a la estación: ESE 554km
Actualizado: 19/10/2018 08:30
Muy nuboso
Muy nuboso
 Viento del NE
Viento: NE 20 km/h
Temperatura: 20°C
Rocío: 15°C
Humedad: 73%
Barómetro: 1014 hPa
Nubes: Muy nuboso
Visibilidad: 10 km
Detalle Nubes: Nubes dispersas 762 m
Parcialmente nuboso 914 m
Muy nuboso 1676 m
2018/10/19 06:30 LEBL 190630Z 05011KT 9999 FEW025CB SCT030 BKN055 20/15 Q1014 TEMPO 4000 TSRA
 
LEMD - Madrid/Barajas, Spain
Distancia a la estación: S 325km
Actualizado: 19/10/2018 08:30
Lluvia débil, Muy nuboso
Lluvia débil, Muy nuboso
 Viento del N
Viento: N 11 km/h
Temperatura: 13°C
Rocío: 12°C
Humedad: 94%
Barómetro: 1013 hPa
Resumen: Lluvia débil
Nubes: Muy nuboso
Visibilidad: 9 km
Detalle Nubes: Parcialmente nuboso 914 m
Muy nuboso 1219 m
Muy nuboso 2134 m
2018/10/19 06:30 LEMD 190630Z 36006KT 9000 -RA SCT030 BKN040 BKN070 13/12 Q1013 RERA R88/29//95 NOSIG
LPPT - Lisbon/Portela, Portugal
Distancia a la estación: SO 663km
Actualizado: 19/10/2018 08:30
Despejado
Despejado
 Viento del N
Viento: N 13 km/h
Temperatura: 16°C
Rocío: 13°C
Humedad: 83%
Barómetro: 1010 hPa
Resumen: Despejado
Visibilidad: greater than 10 km
2018/10/19 06:30 LPPT 190630Z 35007KT CAVOK 16/13 Q1010
 
LECO - La Coruna/Alvedr, Spain
Distancia a la estación: O 349km
Actualizado: 19/10/2018 08:30
Mist, Patches of, Niebla, Parcialmente nuboso
Mist, Patches of, Niebla, Parcialmente nuboso
 Viento del N
Viento: N 11 km/h
Temperatura: 15°C
Rocío: 15°C
Humedad: 100%
Barómetro: 1018 hPa
Resumen: Mist, Patches of, Niebla
Nubes: Parcialmente nuboso
Visibilidad: 2 km
Detalle Nubes: Parcialmente nuboso 61 m
2018/10/19 06:30 LECO 190630Z 35006KT 310V040 1800 BR BCFG SCT002 15/15 Q1018 TEMPO 1400 BCFG
LEST - Santiago/Labacol, Spain
Distancia a la estación: O 358km
Actualizado: 19/10/2018 08:30
Mist, Few clouds
Mist, Few clouds
 Viento del NNE
Viento: NNE 17 km/h
Temperatura: 13°C
Rocío: 13°C
Humedad: 100%
Barómetro: 1018 hPa
Resumen: Mist
Nubes: Nubes dispersas
Visibilidad: 4 km
Detalle Nubes: Nubes dispersas 122 m
2018/10/19 06:30 LEST 190630Z 02009KT 340V050 4000 BR FEW004 13/13 Q1018 TEMPO BKN010